Bedeckt
Bedeckt
Bedeckt
Bedeckt mit leichtem Regen
Bedeckt
Bedeckt mit leichtem Regen
Bedeckt mit leichtem Regen
Bedeckt mit leichtem Regen
Bedeckt mit leichtem Regen
(°C)
17°
17°
17°
17°
18°
18°
18°
18°
18°
18°
17°
17°
16°
16°
15°
15°
15°
15°
(°C)
17°
17°
17°
18°
17°
17°
16°
16°
15°
O
ONO
NO
NO
NO
ONO
NO
NO
N
(km/h)
2-8
3-9
3-10
3-11
4-12
4-13
4-12
4-11
4-12
(mm)
0
0
0
0.1
0
0.1
0.5
0.5
0.6
(%)
5
23
25
40
46
64
73
73
72

Sonnenhöhe

/ 58.7°
sun-icon
UV 4
05:00
21:34
Letztes Viertel (267°)
02:24
12:11

METAR für Hermannsburg (ETHS)

Zeit Bedingungen Temperatur/
Taupunkt
Wind Sichtweite Wetter Wolken Druck Änderung Roh
VFR 17°C / 11°C 80º 2kt 9700m - Few Clouds 2000ft
Scattered Clouds 3700ft
Broken Clouds 13000ft
1006 Temporary: Hail . ETHS 301020Z 08002KT 9999 FEW020 SCT037 BKN130 17/11 Q1006 BLU BLU TEMPO GRN
VFR 16°C / 12°C 120º 3kt 9700m - Few Clouds 1200ft
Scattered Clouds 3700ft
Broken Clouds 11000ft
1006 Temporary: WHT ETHS 300920Z 12003KT 9999 FEW012 SCT037 BKN110 16/12 Q1006 BLU BLU TEMPO WHT
VFR 14°C / 13°C 40º 2kt 9000m - Few Clouds 500ft
Broken Clouds 10000ft
1006 Temporary: WHT ETHS 300820Z 04002KT 9000 FEW005 BKN100 14/13 Q1006 BLU BLU TEMPO WHT
MVFR 13°C / 13°C 50º 2kt 6000m - Few Clouds 200ft
Broken Clouds 9000ft
1006 Temporary: WHT ETHS 300746Z 05002KT 6000 FEW002 BKN090 13/13 Q1006 WHT BLU TEMPO WHT
IFR 13°C / 12°C 120º 1kt 4000m Mist Scattered Clouds 200ft
Broken Clouds 9000ft
1006 Temporary: YLO ETHS 300720Z 12001KT 4000 BR SCT002 BKN090 13/12 Q1006 GRN BLU TEMPO YLO
IFR 12°C / 12°C 110º 2kt 2000m Mist Scattered Clouds 200ft
Broken Clouds 8000ft
1006 Temporary: YLO ETHS 300645Z 11002KT 2000 BR SCT002 BKN080 12/12 Q1006 YLO BLU TEMPO YLO
IFR 11°C / 11°C 120º 2kt 3500m Mist Few Clouds 200ft
Broken Clouds 8000ft
1006 Temporary: YLO ETHS 300620Z 12002KT 3500 BR FEW002 BKN080 11/11 Q1006 YLO BLU TEMPO YLO
IFR 9°C / 9°C 60º 1kt 3500m Mist Few Clouds 7000ft
Broken Clouds 12000ft
1006 Temporary: YLO ETHS 300520Z 06001KT 3500 BR FEW070 BKN120 09/09 Q1006 YLO BLU TEMPO YLO
IFR 8°C / 8°C variable 0kt 3000m Mist Few Clouds 7000ft
Broken Clouds 10000ft
1006 Temporary: YLO ETHS 300420Z 00000KT 3000 BR FEW070 BKN100 08/08 Q1006 YLO BLU TEMPO YLO
LIFR 8°C / 7°C 60º 1kt 1600m Mist Few Clouds 7000ft
Scattered Clouds 12000ft
1006 - ETHS 300408Z 06001KT 1600 BR FEW070 SCT120 08/07 Q1006 YLO
LIFR 7°C / 7°C 130º 1kt 800m patches Fog Few Clouds 10000ft 1006 - ETHS 300320Z 13001KT 0800 BCFG FEW100 07/07 Q1006 AMB
LIFR 8°C / 8°C 70º 1kt 400m Fog Few Clouds 7000ft 1006 - ETHS 300220Z 07001KT 0400 FG FEW070 08/08 Q1006 RED
LIFR 8°C / 8°C 110º 2kt 400m Fog Few Clouds 12000ft 1006 - ETHS 300120Z 11002KT 0400 FG FEW120 08/08 Q1006 RED
VFR 10°C / 9°C 170º 3kt 9700m shallow Fog Few Clouds 10000ft 1007 - ETHS 300020Z 17003KT 9999 MIFG FEW100 10/09 Q1007 BLU+
VFR 10°C / 10°C 1kt 9700m - Few Clouds 10000ft 1007 - ETHS 292320Z VRB01KT 9999 FEW100 10/10 Q1007 BLU+
VFR 12°C / 11°C 230º 4kt 9700m - Few Clouds 10000ft 1007 - ETHS 292220Z 23004KT 9999 FEW100 12/11 Q1007 BLU+
VFR 13°C / 12°C 220º 6kt 9700m - Few Clouds 8000ft 1007 - ETHS 292120Z 22006KT 9999 FEW080 13/12 Q1007 BLU+
VFR 14°C / 14°C 190º 5kt 9000m - Few Clouds 1000ft 1007 - ETHS 292020Z 19005KT 9000 FEW010 14/14 Q1007 BLU+
MVFR 15°C / 14°C 180º 3kt 8000m - Few Clouds 500ft
Few Clouds 3000ft
Broken Clouds 8000ft
1007 - ETHS 291920Z 18003KT 8000 FEW005 FEW030CB BKN080 15/14 Q1007 BLU
MVFR 15°C / 14°C 300º 1kt 9700m - Few Clouds 900ft
Broken Clouds 2800ft
Broken Clouds 7000ft
1007 - ETHS 291820Z 30001KT 9999 FEW009 BKN028 BKN070 15/14 Q1007 RESHRA BLU
MVFR 15°C / 14°C 10º 3kt 8000m Light Showers Rain 3.00mm precipitation Scattered Clouds 600ft
Scattered Clouds 2500ft
Broken Clouds 5000ft
1008 - ETHS 291746Z 01003KT 8000 -SHRA SCT006 SCT025CB BKN050 15/14 Q1008 RESHRA BLU
MVFR 15°C / 14°C 110º 5kt 5000m Showers Rain 3.00mm precipitation Scattered Clouds 2500ft
Broken Clouds 4000ft
1008 - ETHS 291720Z 11005KT 5000 SHRA SCT025CB BKN040 15/14 Q1008 WHT
VFR 16°C / 13°C 90º 4kt 9700m - Few Clouds 1000ft
Scattered Clouds 2500ft
1007 - ETHS 291620Z 09004KT 9999 FEW010 SCT025CB 16/13 Q1007 RESHRA BLU+
MVFR 14°C / 13°C 130º 2kt 8000m - Few Clouds 400ft
Scattered Clouds 2500ft
1007 - ETHS 291550Z 13002KT 8000 FEW004 SCT025CB 14/13 Q1007 RESHRA BLU+

VFR

17°C / 11°C

[Mehr]
Wind 80º 2kt
Sichtweite 9700m
Wetter -
Wolken Few Clouds 2000ft
Scattered Clouds 3700ft
Broken Clouds 13000ft
Druck 1006
Änderung Temporary: Hail .
Roh ETHS 301020Z 08002KT 9999 FEW020 SCT037 BKN130 17/11 Q1006 BLU BLU TEMPO GRN

VFR

16°C / 12°C

[Mehr]
Wind 120º 3kt
Sichtweite 9700m
Wetter -
Wolken Few Clouds 1200ft
Scattered Clouds 3700ft
Broken Clouds 11000ft
Druck 1006
Änderung Temporary: WHT
Roh ETHS 300920Z 12003KT 9999 FEW012 SCT037 BKN110 16/12 Q1006 BLU BLU TEMPO WHT

VFR

14°C / 13°C

[Mehr]
Wind 40º 2kt
Sichtweite 9000m
Wetter -
Wolken Few Clouds 500ft
Broken Clouds 10000ft
Druck 1006
Änderung Temporary: WHT
Roh ETHS 300820Z 04002KT 9000 FEW005 BKN100 14/13 Q1006 BLU BLU TEMPO WHT

MVFR

13°C / 13°C

[Mehr]
Wind 50º 2kt
Sichtweite 6000m
Wetter -
Wolken Few Clouds 200ft
Broken Clouds 9000ft
Druck 1006
Änderung Temporary: WHT
Roh ETHS 300746Z 05002KT 6000 FEW002 BKN090 13/13 Q1006 WHT BLU TEMPO WHT

IFR

13°C / 12°C

[Mehr]
Wind 120º 1kt
Sichtweite 4000m
Wetter Mist
Wolken Scattered Clouds 200ft
Broken Clouds 9000ft
Druck 1006
Änderung Temporary: YLO
Roh ETHS 300720Z 12001KT 4000 BR SCT002 BKN090 13/12 Q1006 GRN BLU TEMPO YLO

IFR

12°C / 12°C

[Mehr]
Wind 110º 2kt
Sichtweite 2000m
Wetter Mist
Wolken Scattered Clouds 200ft
Broken Clouds 8000ft
Druck 1006
Änderung Temporary: YLO
Roh ETHS 300645Z 11002KT 2000 BR SCT002 BKN080 12/12 Q1006 YLO BLU TEMPO YLO

IFR

11°C / 11°C

[Mehr]
Wind 120º 2kt
Sichtweite 3500m
Wetter Mist
Wolken Few Clouds 200ft
Broken Clouds 8000ft
Druck 1006
Änderung Temporary: YLO
Roh ETHS 300620Z 12002KT 3500 BR FEW002 BKN080 11/11 Q1006 YLO BLU TEMPO YLO

IFR

9°C / 9°C

[Mehr]
Wind 60º 1kt
Sichtweite 3500m
Wetter Mist
Wolken Few Clouds 7000ft
Broken Clouds 12000ft
Druck 1006
Änderung Temporary: YLO
Roh ETHS 300520Z 06001KT 3500 BR FEW070 BKN120 09/09 Q1006 YLO BLU TEMPO YLO

IFR

8°C / 8°C

[Mehr]
Wind variable 0kt
Sichtweite 3000m
Wetter Mist
Wolken Few Clouds 7000ft
Broken Clouds 10000ft
Druck 1006
Änderung Temporary: YLO
Roh ETHS 300420Z 00000KT 3000 BR FEW070 BKN100 08/08 Q1006 YLO BLU TEMPO YLO

LIFR

8°C / 7°C

[Mehr]
Wind 60º 1kt
Sichtweite 1600m
Wetter Mist
Wolken Few Clouds 7000ft
Scattered Clouds 12000ft
Druck 1006
Änderung -
Roh ETHS 300408Z 06001KT 1600 BR FEW070 SCT120 08/07 Q1006 YLO

LIFR

7°C / 7°C

[Mehr]
Wind 130º 1kt
Sichtweite 800m
Wetter patches Fog
Wolken Few Clouds 10000ft
Druck 1006
Änderung -
Roh ETHS 300320Z 13001KT 0800 BCFG FEW100 07/07 Q1006 AMB

LIFR

8°C / 8°C

[Mehr]
Wind 70º 1kt
Sichtweite 400m
Wetter Fog
Wolken Few Clouds 7000ft
Druck 1006
Änderung -
Roh ETHS 300220Z 07001KT 0400 FG FEW070 08/08 Q1006 RED

LIFR

8°C / 8°C

[Mehr]
Wind 110º 2kt
Sichtweite 400m
Wetter Fog
Wolken Few Clouds 12000ft
Druck 1006
Änderung -
Roh ETHS 300120Z 11002KT 0400 FG FEW120 08/08 Q1006 RED

VFR

10°C / 9°C

[Mehr]
Wind 170º 3kt
Sichtweite 9700m
Wetter shallow Fog
Wolken Few Clouds 10000ft
Druck 1007
Änderung -
Roh ETHS 300020Z 17003KT 9999 MIFG FEW100 10/09 Q1007 BLU+

VFR

10°C / 10°C

[Mehr]
Wind 1kt
Sichtweite 9700m
Wetter -
Wolken Few Clouds 10000ft
Druck 1007
Änderung -
Roh ETHS 292320Z VRB01KT 9999 FEW100 10/10 Q1007 BLU+

VFR

12°C / 11°C

[Mehr]
Wind 230º 4kt
Sichtweite 9700m
Wetter -
Wolken Few Clouds 10000ft
Druck 1007
Änderung -
Roh ETHS 292220Z 23004KT 9999 FEW100 12/11 Q1007 BLU+

VFR

13°C / 12°C

[Mehr]
Wind 220º 6kt
Sichtweite 9700m
Wetter -
Wolken Few Clouds 8000ft
Druck 1007
Änderung -
Roh ETHS 292120Z 22006KT 9999 FEW080 13/12 Q1007 BLU+

VFR

14°C / 14°C

[Mehr]
Wind 190º 5kt
Sichtweite 9000m
Wetter -
Wolken Few Clouds 1000ft
Druck 1007
Änderung -
Roh ETHS 292020Z 19005KT 9000 FEW010 14/14 Q1007 BLU+

MVFR

15°C / 14°C

[Mehr]
Wind 180º 3kt
Sichtweite 8000m
Wetter -
Wolken Few Clouds 500ft
Few Clouds 3000ft
Broken Clouds 8000ft
Druck 1007
Änderung -
Roh ETHS 291920Z 18003KT 8000 FEW005 FEW030CB BKN080 15/14 Q1007 BLU

MVFR

15°C / 14°C

[Mehr]
Wind 300º 1kt
Sichtweite 9700m
Wetter -
Wolken Few Clouds 900ft
Broken Clouds 2800ft
Broken Clouds 7000ft
Druck 1007
Änderung -
Roh ETHS 291820Z 30001KT 9999 FEW009 BKN028 BKN070 15/14 Q1007 RESHRA BLU

MVFR

15°C / 14°C

[Mehr]
Wind 10º 3kt
Sichtweite 8000m
Wetter Light Showers Rain 3.00mm precipitation
Wolken Scattered Clouds 600ft
Scattered Clouds 2500ft
Broken Clouds 5000ft
Druck 1008
Änderung -
Roh ETHS 291746Z 01003KT 8000 -SHRA SCT006 SCT025CB BKN050 15/14 Q1008 RESHRA BLU

MVFR

15°C / 14°C

[Mehr]
Wind 110º 5kt
Sichtweite 5000m
Wetter Showers Rain 3.00mm precipitation
Wolken Scattered Clouds 2500ft
Broken Clouds 4000ft
Druck 1008
Änderung -
Roh ETHS 291720Z 11005KT 5000 SHRA SCT025CB BKN040 15/14 Q1008 WHT

VFR

16°C / 13°C

[Mehr]
Wind 90º 4kt
Sichtweite 9700m
Wetter -
Wolken Few Clouds 1000ft
Scattered Clouds 2500ft
Druck 1007
Änderung -
Roh ETHS 291620Z 09004KT 9999 FEW010 SCT025CB 16/13 Q1007 RESHRA BLU+

MVFR

14°C / 13°C

[Mehr]
Wind 130º 2kt
Sichtweite 8000m
Wetter -
Wolken Few Clouds 400ft
Scattered Clouds 2500ft
Druck 1007
Änderung -
Roh ETHS 291550Z 13002KT 8000 FEW004 SCT025CB 14/13 Q1007 RESHRA BLU+

TAF für Hermannsburg (ETHS)

From till


From till Wind 3kt. Visibility 9700m. Scattered Clouds 3000ft. Broken Clouds 6000ft.
Temporarly from till Wind 60º 10kt. Gust 20kt. Visibility 4000m. Showers Rain . Broken Clouds 2000ft.

Roh: TAF ETHS 301010Z 3011/3020 VRB03KT 9999 NSW SCT030 BKN060 TEMPO 3011/3020 06010G20KT 4000 SHRA BKN020CB

rainNOW: Regenvorhersage für Hermannsburg und Umgebung (25km Radius)

0.0 mm
0.0 mm
0.0 mm
0.0 mm
0.0 mm
0.0 mm
0.0 mm
0.0 mm
0.0 mm
0.0 mm
0.0 mm
0.0 mm

Radar- und Niederschlags-Nowcast für Hermannsburg

Nieselregen
Leicht
Moderat
Stark
Sehr schwer
Hagel

Die Ortsmarkierung zeigt auf Hermannsburg. Diese Animation zeigt das Niederschlagsradar für den ausgewählten Zeitraum sowie eine 2h-Vorhersage. Orange Kreuze zeigen Blitze an. Daten bereitgestellt von nowcast.de (verfügbar in den USA, Europa, Australien). Nieselregen oder leichter Schneefall können für den Radar unsichtbar sein. Die Niederschlagsintensität ist farbcodiert und reicht von hellblau bis rot.

Aktuelle Satelliten- und Regenbilder für Hermannsburg, Deutschland

Die Standortmarkierung ist platziert auf Hermannsburg. [Mehr]

Das Echtzeit-Satellitenbild kombiniert sichtbares Licht während des Tages mit Infrarotstrahlung während der Nacht. Nachts ist das Bild nicht dunkel, da Infrarotstrahlung Temperaturunterschiede erkennen kann. Leider sind niedrige Wolken und Nebel nur schwer von den Bodentemperaturen zu unterscheiden und können daher nachts fast unsichtbar sein. Meteosat-Satellitenbilder für Europa werden alle 5 Minuten in Echtzeit aktualisiert. Die Bilder GOES-16 / GOES-17 (Nord- und Südamerika) und Himawari (Asien) werden alle 10 Minuten aktualisiert.

Niederschläge werden von Radar und Satelliten berechnet. Nachts sind die Niederschlagsberechnungen durch die Satelliten weniger genau als tagsüber.

© 2024 meteoblue, NOAA Satellites GOES-16 and EUMETSAT. Blitzdaten zur Verfügung gestellt von nowcast.

Zum Anfang
×
Hallo,
es scheint, als würden Sie einen Werbeblocker benutzen.

Werbung ist unerlässlich, um unsere kostenlose Website mit einzigartiger Detailtreue und Genauigkeit zu pflegen.

Bitte setzen Sie www.meteoblue.com auf die Whitelist Ihres Werbeblockers oder erwägen Sie den Kauf eines unserer Produkte:

Sie haben bereits ein Abonnement?
Dann melden Sie sich bitte an.